Time;durP1;ratioP1;P1;durP2;ratioP2;P2;SDS_P1;SDS_P2;PMS_P1;PMS_P2;Temp;Humidity;BMP_temperature;BMP_pressure;BME280_temperature;BME280_humidity;BME280_pressure;Samples;Min_cycle;Max_cycle;Signal;HPM_P1;HPM_P2
2022/01/10 00:01:29;;;;;;;57.60;31.50;;;;;;;-2.73;76.57;99660.75;106110;1274;108465;-68
2022/01/10 00:04:01;;;;;;;57.10;30.60;;;;;;;-2.72;76.51;99669.09;105900;1276;97891;-69
2022/01/10 00:06:35;;;;;;;59.70;31.60;;;;;;;-2.71;76.61;99667.23;105895;1274;140220;-69
2022/01/10 00:09:07;;;;;;;56.90;31.70;;;;;;;-2.69;76.69;99670.67;105989;1275;112530;-69
2022/01/10 00:11:39;;;;;;;57.20;32.80;;;;;;;-2.67;76.56;99673.59;105826;1275;137847;-69
2022/01/10 00:14:11;;;;;;;57.10;32.00;;;;;;;-2.66;76.78;99680.24;105850;1275;108817;-69
2022/01/10 00:16:43;;;;;;;64.40;34.40;;;;;;;-2.66;76.74;99680.08;105748;1274;97823;-69
2022/01/10 00:19:15;;;;;;;62.70;34.00;;;;;;;-2.67;76.53;99675.98;105629;1276;138483;-68
2022/01/10 00:21:47;;;;;;;64.10;35.70;;;;;;;-2.71;76.52;99683.39;105839;1276;114021;-69
2022/01/10 00:24:19;;;;;;;69.80;37.90;;;;;;;-2.77;76.46;99684.35;105746;1275;137822;-69
2022/01/10 00:26:51;;;;;;;77.30;39.40;;;;;;;-2.84;76.08;99684.45;105774;1274;109146;-69
2022/01/10 00:29:23;;;;;;;72.50;39.20;;;;;;;-2.92;76.17;99688.06;105728;1276;138425;-69
2022/01/10 00:31:57;;;;;;;76.20;38.50;;;;;;;-3.02;75.90;99693.55;105844;1274;97981;-69
2022/01/10 00:34:29;;;;;;;78.10;40.10;;;;;;;-3.10;76.57;99697.19;107513;1274;112499;-69
2022/01/10 00:37:02;;;;;;;83.30;42.40;;;;;;;-3.14;76.17;99703.42;105812;1274;138792;-68
2022/01/10 00:39:34;;;;;;;87.90;43.70;;;;;;;-3.18;76.37;99705.59;105839;1274;108673;-69
2022/01/10 00:42:06;;;;;;;87.70;43.30;;;;;;;-3.22;76.16;99710.98;106527;1275;138062;-69
2022/01/10 00:44:44;;;;;;;98.50;44.90;;;;;;;-3.28;76.55;99718.02;106611;1276;97942;-69
2022/01/10 00:47:17;;;;;;;94.60;46.80;;;;;;;-3.31;76.32;99715.58;107378;1274;138042;-69
2022/01/10 00:49:49;;;;;;;105.40;47.70;;;;;;;-3.35;76.76;99722.33;106430;1276;110143;-68
2022/01/10 00:52:21;;;;;;;99.50;46.10;;;;;;;-3.40;76.84;99728.04;105833;1274;108716;-68
2022/01/10 00:54:53;;;;;;;90.30;44.30;;;;;;;-3.45;77.19;99728.61;105695;1273;138546;-68
2022/01/10 00:57:25;;;;;;;91.00;43.70;;;;;;;-3.46;77.70;99728.77;105901;1275;97844;-68
2022/01/10 00:59:59;;;;;;;91.80;43.00;;;;;;;-3.45;77.44;99734.40;105753;1275;139477;-68
2022/01/10 01:02:32;;;;;;;89.50;42.90;;;;;;;-3.44;77.70;99733.73;107495;1274;107791;-68
2022/01/10 01:05:08;;;;;;;87.40;41.10;;;;;;;-3.46;77.59;99739.82;107336;1274;141361;-68
2022/01/10 01:07:40;;;;;;;85.20;41.90;;;;;;;-3.49;77.64;99747.93;106562;1274;97884;-68
2022/01/10 01:13:10;;;;;;;92.90;43.00;;;;;;;-3.53;77.89;99760.79;107283;1274;140710;-67
2022/01/10 01:15:57;;;;;;;91.30;41.50;;;;;;;-3.56;77.84;99764.48;107469;1274;108874;-67
2022/01/10 01:19:01;;;;;;;90.20;41.20;;;;;;;-3.58;77.85;99768.89;107346;1274;138618;-67
2022/01/10 01:24:15;;;;;;;91.80;41.10;;;;;;;-3.58;78.08;99788.41;106059;1277;139368;-67
2022/01/10 01:26:51;;;;;;;88.40;40.10;;;;;;;-3.55;78.22;99791.52;105833;1276;112141;-68
2022/01/10 01:29:25;;;;;;;87.90;41.40;;;;;;;-3.53;78.31;99796.33;105672;1278;138728;-69
2022/01/10 01:31:57;;;;;;;88.30;41.20;;;;;;;-3.48;78.65;99795.70;105870;1275;108692;-68
2022/01/10 01:34:29;;;;;;;87.40;41.00;;;;;;;-3.45;78.66;99795.91;105991;1274;97818;-68
2022/01/10 01:37:01;;;;;;;104.00;42.50;;;;;;;-3.47;78.40;99798.62;105661;1276;138030;-67
2022/01/10 01:39:35;;;;;;;94.70;43.30;;;;;;;-3.50;78.59;99801.96;105856;1277;112466;-69
2022/01/10 01:42:31;;;;;;;88.80;41.60;;;;;;;-3.53;78.59;99805.48;105794;1276;138060;-68
2022/01/10 01:45:04;;;;;;;91.40;41.50;;;;;;;-3.59;78.65;99798.06;107537;1274;108830;-68
2022/01/10 01:47:37;;;;;;;87.30;40.20;;;;;;;-3.61;78.68;99800.91;107358;1274;139054;-68
2022/01/10 01:50:14;;;;;;;80.80;37.10;;;;;;;-3.60;78.88;99803.13;107365;1274;96212;-68
2022/01/10 01:52:46;;;;;;;79.40;38.60;;;;;;;-3.60;78.94;99801.09;106700;1275;112530;-69
2022/01/10 01:55:18;;;;;;;78.80;37.70;;;;;;;-3.63;78.96;99800.88;105904;1274;138402;-68
2022/01/10 01:57:50;;;;;;;86.40;40.10;;;;;;;-3.65;78.95;99802.05;105826;1275;110657;-70
2022/01/10 02:00:23;;;;;;;86.60;40.00;;;;;;;-3.71;79.11;99805.85;105679;1277;138140;-67
2022/01/10 02:02:58;;;;;;;84.10;39.20;;;;;;;-3.78;79.47;99814.71;106089;1274;97847;-67
2022/01/10 02:05:32;;;;;;;87.70;39.90;;;;;;;-3.82;79.71;99817.02;105834;1274;138922;-66
2022/01/10 02:08:05;;;;;;;81.90;37.40;;;;;;;-3.84;79.76;99816.30;105884;1275;108230;-68
2022/01/10 02:10:37;;;;;;;79.30;37.40;;;;;;;-3.85;80.00;99820.02;107167;1274;109066;-68
2022/01/10 02:13:09;;;;;;;69.80;34.10;;;;;;;-3.86;80.15;99824.94;105681;1277;139418;-68
2022/01/10 02:15:48;;;;;;;74.80;34.40;;;;;;;-3.84;80.72;99826.16;105960;1274;97844;-68
2022/01/10 02:18:21;;;;;;;78.20;37.00;;;;;;;-3.81;80.35;99825.20;105883;1274;138195;-68
2022/01/10 02:20:57;;;;;;;79.50;36.30;;;;;;;-3.75;80.68;99821.92;105820;1274;109339;-69
2022/01/10 02:23:31;;;;;;;78.50;36.60;;;;;;;-3.69;80.77;99826.96;105787;1274;138178;-68
2022/01/10 02:26:18;;;;;;;73.30;34.20;;;;;;;-3.64;80.75;99836.71;105799;1274;97814;-68
2022/01/10 02:28:50;;;;;;;72.40;33.60;;;;;;;-3.60;80.75;99837.96;105824;1277;98011;-68
2022/01/10 02:31:22;;;;;;;66.90;31.80;;;;;;;-3.56;80.61;99840.96;105751;1274;138989;-68
2022/01/10 02:33:57;;;;;;;62.80;30.60;;;;;;;-3.51;81.03;99847.84;105864;1274;107577;-68
2022/01/10 02:36:29;;;;;;;59.40;29.30;;;;;;;-3.44;80.74;99851.02;105686;1274;139573;-68
2022/01/10 02:39:06;;;;;;;62.70;31.50;;;;;;;-3.34;81.10;99854.94;105897;1274;97965;-68
2022/01/10 02:41:41;;;;;;;61.90;30.10;;;;;;;-3.27;80.86;99858.10;105728;1274;138240;-68
2022/01/10 02:44:16;;;;;;;66.20;30.40;;;;;;;-3.25;80.87;99863.74;105832;1274;111449;-68
2022/01/10 02:46:49;;;;;;;57.90;29.90;;;;;;;-3.27;80.73;99864.40;105852;1274;108859;-68
2022/01/10 02:49:30;;;;;;;60.20;29.00;;;;;;;-3.29;80.86;99869.30;105770;1274;138614;-68
2022/01/10 02:52:03;;;;;;;57.00;28.70;;;;;;;-3.31;81.15;99869.78;105857;1275;98151;-68
2022/01/10 02:54:36;;;;;;;56.90;28.40;;;;;;;-3.32;80.76;99872.30;105599;1275;139092;-68
2022/01/10 02:57:16;;;;;;;58.00;27.90;;;;;;;-3.29;81.13;99879.33;105773;1274;112463;-68
2022/01/10 02:59:48;;;;;;;58.30;28.40;;;;;;;-3.22;81.13;99881.48;105803;1274;138456;-69
2022/01/10 03:02:26;;;;;;;57.30;29.30;;;;;;;-3.11;80.88;99886.77;105877;1274;109526;-69
2022/01/10 03:04:58;;;;;;;65.50;31.70;;;;;;;-3.02;81.52;99886.27;106764;1275;96431;-68
2022/01/10 03:07:30;;;;;;;66.60;32.00;;;;;;;-3.02;81.50;99895.11;105812;1274;137803;-67
2022/01/10 03:10:04;;;;;;;63.60;30.90;;;;;;;-3.07;81.40;99901.30;105923;1274;111717;-67
2022/01/10 03:12:36;;;;;;;62.00;29.70;;;;;;;-3.09;81.47;99905.35;107287;1274;138669;-68
2022/01/10 03:15:11;;;;;;;61.10;30.60;;;;;;;-3.10;81.25;99909.08;107325;1274;108773;-67
2022/01/10 03:17:43;;;;;;;56.30;27.80;;;;;;;-3.07;81.17;99916.29;107248;1274;139976;-68
2022/01/10 03:20:16;;;;;;;50.40;26.60;;;;;;;-2.99;81.69;99916.91;107265;1276;96063;-67
2022/01/10 03:22:48;;;;;;;52.80;28.40;;;;;;;-2.94;81.83;99927.89;106672;1276;112626;-68
2022/01/10 03:25:21;;;;;;;57.90;29.90;;;;;;;-2.91;81.91;99932.70;106330;1276;138359;-67
2022/01/10 03:27:54;;;;;;;59.10;29.50;;;;;;;-2.92;82.06;99936.76;105705;1276;107555;-68
2022/01/10 03:30:28;;;;;;;58.50;29.00;;;;;;;-2.96;81.83;99940.62;105747;1276;138210;-67
2022/01/10 03:33:02;;;;;;;56.20;28.80;;;;;;;-2.95;82.00;99941.98;107311;1276;96586;-67
2022/01/10 03:35:38;;;;;;;54.90;28.50;;;;;;;-2.91;82.08;99941.55;107349;1274;139353;-68
2022/01/10 03:38:12;;;;;;;55.80;27.90;;;;;;;-2.89;82.13;99946.84;107388;1274;109268;-68
2022/01/10 03:40:44;;;;;;;50.60;27.30;;;;;;;-2.84;81.97;99955.45;107221;1276;108892;-68
2022/01/10 03:43:21;;;;;;;51.40;26.10;;;;;;;-2.77;81.73;99961.19;107211;1275;140718;-68
2022/01/10 03:45:53;;;;;;;52.00;26.50;;;;;;;-2.70;81.67;99965.73;107346;1276;96071;-68
2022/01/10 03:48:25;;;;;;;52.90;26.10;;;;;;;-2.63;81.65;99967.39;107362;1274;137785;-68
2022/01/10 03:50:58;;;;;;;50.00;26.00;;;;;;;-2.58;81.53;99972.22;107421;1274;109216;-68
2022/01/10 03:53:30;;;;;;;51.30;25.70;;;;;;;-2.56;81.27;99972.92;107206;1274;138498;-68
2022/01/10 03:56:02;;;;;;;52.20;24.90;;;;;;;-2.56;81.11;99974.80;107409;1274;96005;-68
2022/01/10 03:58:35;;;;;;;41.80;22.20;;;;;;;-2.57;81.30;99972.23;107374;1274;96678;-68
2022/01/10 04:01:08;;;;;;;44.80;23.70;;;;;;;-2.58;80.99;99976.65;107341;1272;138283;-68
2022/01/10 04:03:42;;;;;;;36.50;21.00;;;;;;;-2.54;80.66;99983.67;106985;1276;108870;-68
2022/01/10 04:06:17;;;;;;;37.00;20.00;;;;;;;-2.50;80.88;99987.84;105732;1276;138687;-68
2022/01/10 04:08:49;;;;;;;36.60;20.20;;;;;;;-2.48;81.06;99989.93;105763;1276;98187;-68
2022/01/10 04:11:22;;;;;;;36.30;19.60;;;;;;;-2.47;80.65;99991.99;105696;1274;139199;-68
2022/01/10 04:13:54;;;;;;;36.40;20.10;;;;;;;-2.40;80.79;99994.98;105804;1275;112213;-68
2022/01/10 04:16:26;;;;;;;40.70;21.70;;;;;;;-2.34;80.67;99998.66;105810;1274;109164;-68
2022/01/10 04:18:58;;;;;;;35.30;20.60;;;;;;;-2.33;80.37;100004.45;105740;1274;137852;-68
2022/01/10 04:21:30;;;;;;;39.90;20.40;;;;;;;-2.32;80.28;100006.17;105768;1274;97858;-68
2022/01/10 04:24:02;;;;;;;41.30;21.20;;;;;;;-2.34;80.13;100008.53;105852;1274;137890;-69
2022/01/10 04:26:35;;;;;;;41.20;21.70;;;;;;;-2.37;80.31;100009.48;105870;1274;112748;-68
2022/01/10 04:29:08;;;;;;;40.50;22.20;;;;;;;-2.39;80.21;100009.13;106898;1274;107025;-68
2022/01/10 04:31:40;;;;;;;43.50;21.90;;;;;;;-2.44;80.23;100009.57;105872;1274;138655;-68
2022/01/10 04:34:12;;;;;;;38.90;21.00;;;;;;;-2.46;80.43;100018.05;105986;1276;97851;-67
2022/01/10 04:36:44;;;;;;;39.50;21.60;;;;;;;-2.47;80.26;100019.40;105872;1274;138715;-68
2022/01/10 04:39:17;;;;;;;40.90;21.50;;;;;;;-2.47;80.26;100019.90;106044;1274;113252;-67
2022/01/10 04:41:49;;;;;;;40.60;21.30;;;;;;;-2.48;80.26;100024.48;106784;1274;144450;-66
2022/01/10 04:44:21;;;;;;;43.70;22.30;;;;;;;-2.52;80.14;100027.12;105949;1274;108848;-69
2022/01/10 04:46:53;;;;;;;43.00;21.40;;;;;;;-2.52;80.33;100034.10;105754;1277;97858;-66
2022/01/10 04:49:26;;;;;;;42.60;22.50;;;;;;;-2.51;80.49;100041.45;105985;1276;138683;-67
2022/01/10 04:51:58;;;;;;;44.10;22.80;;;;;;;-2.49;80.30;100048.31;106062;1274;111500;-69
2022/01/10 04:54:31;;;;;;;42.10;21.50;;;;;;;-2.48;80.46;100054.45;105940;1274;139932;-69
2022/01/10 04:57:04;;;;;;;41.40;22.60;;;;;;;-2.45;80.54;100058.08;106004;1276;108341;-67
2022/01/10 04:59:36;;;;;;;40.90;22.50;;;;;;;-2.41;80.55;100059.33;106234;1275;138350;-67
2022/01/10 05:02:10;;;;;;;46.30;23.10;;;;;;;-2.42;80.25;100062.88;105926;1275;97902;-68
2022/01/10 05:04:42;;;;;;;48.50;23.80;;;;;;;-2.43;80.28;100063.38;105995;1276;111917;-68
2022/01/10 05:07:14;;;;;;;45.60;23.30;;;;;;;-2.42;80.39;100061.69;105981;1276;138263;-68
2022/01/10 05:09:48;;;;;;;44.40;23.80;;;;;;;-2.41;80.34;100063.23;106041;1276;108745;-67
2022/01/10 05:12:24;;;;;;;46.40;23.40;;;;;;;-2.41;79.87;100068.85;105981;1274;139723;-68
2022/01/10 05:14:56;;;;;;;45.00;23.10;;;;;;;-2.41;80.26;100074.81;106120;1274;99228;-67
2022/01/10 05:17:28;;;;;;;45.00;22.70;;;;;;;-2.39;80.02;100072.80;105899;1276;139450;-68
2022/01/10 05:20:00;;;;;;;44.40;23.40;;;;;;;-2.37;80.12;100079.30;105988;1276;108147;-68
2022/01/10 05:22:32;;;;;;;43.70;23.20;;;;;;;-2.32;80.39;100086.04;106036;1275;108982;-68
2022/01/10 05:25:05;;;;;;;45.70;22.90;;;;;;;-2.26;80.28;100090.74;105925;1276;139012;-67
2022/01/10 05:27:37;;;;;;;42.30;21.90;;;;;;;-2.20;80.24;100096.79;107437;1274;96093;-68
2022/01/10 05:30:12;;;;;;;46.50;23.40;;;;;;;-2.16;80.20;100102.84;106884;1276;139585;-68
2022/01/10 05:32:46;;;;;;;48.00;23.20;;;;;;;-2.09;80.13;100113.01;106258;1274;105771;-67
2022/01/10 05:35:33;;;;;;;46.80;23.10;;;;;;;-2.02;79.80;100121.29;105986;1274;140521;-68
2022/01/10 05:38:06;;;;;;;50.00;24.50;;;;;;;-1.96;79.96;100124.80;106038;1274;97835;-68
2022/01/10 05:40:38;;;;;;;51.10;26.20;;;;;;;-1.93;79.83;100122.82;105782;1276;97852;-68
2022/01/10 05:43:11;;;;;;;56.00;26.80;;;;;;;-1.89;79.62;100130.88;105694;1274;138147;-68
2022/01/10 05:45:46;;;;;;;52.60;25.60;;;;;;;-1.87;79.65;100128.88;107175;1274;109013;-68
2022/01/10 05:48:25;;;;;;;55.90;27.70;;;;;;;-1.83;79.57;100129.60;106613;1275;138053;-68
2022/01/10 05:51:01;;;;;;;56.90;28.40;;;;;;;-1.83;79.45;100130.13;106106;1275;97132;-67
2022/01/10 05:53:34;;;;;;;54.40;27.00;;;;;;;-1.85;79.61;100139.96;105837;1276;138857;-68
2022/01/10 05:56:07;;;;;;;55.10;27.70;;;;;;;-1.88;79.20;100140.77;106010;1276;112263;-68
2022/01/10 05:58:51;;;;;;;58.50;28.40;;;;;;;-1.88;79.17;100142.98;106104;1276;109675;-68
2022/01/10 06:01:23;;;;;;;59.60;28.70;;;;;;;-1.85;79.31;100144.91;105889;1275;138723;-68
2022/01/10 06:03:58;;;;;;;58.00;28.40;;;;;;;-1.82;79.14;100147.34;105825;1274;97813;-68
2022/01/10 06:06:38;;;;;;;61.60;29.30;;;;;;;-1.76;79.53;100147.29;105918;1275;138638;-68
2022/01/10 06:09:10;;;;;;;67.30;31.20;;;;;;;-1.71;79.64;100155.19;105817;1274;111533;-68
2022/01/10 06:11:42;;;;;;;66.50;29.70;;;;;;;-1.68;79.43;100162.40;105647;1274;139213;-68
2022/01/10 06:14:17;;;;;;;61.30;29.20;;;;;;;-1.64;79.43;100168.42;105499;1274;109032;-68
2022/01/10 06:16:49;;;;;;;64.70;30.40;;;;;;;-1.61;79.40;100164.39;105860;1275;97932;-69
2022/01/10 06:19:21;;;;;;;59.20;29.30;;;;;;;-1.59;79.25;100166.98;105706;1275;138654;-69
2022/01/10 06:21:53;;;;;;;59.80;29.60;;;;;;;-1.56;79.39;100178.11;105860;1274;112629;-68
2022/01/10 06:24:26;;;;;;;65.70;31.50;;;;;;;-1.54;79.38;100183.94;105552;1274;140168;-68
2022/01/10 06:26:58;;;;;;;71.20;32.80;;;;;;;-1.50;79.01;100189.62;105813;1275;108738;-69
2022/01/10 06:29:30;;;;;;;66.80;32.00;;;;;;;-1.49;78.87;100195.77;105783;1276;138270;-69
2022/01/10 06:32:03;;;;;;;67.00;32.40;;;;;;;-1.51;79.19;100204.10;106012;1275;97850;-68
2022/01/10 06:34:35;;;;;;;70.30;33.20;;;;;;;-1.54;78.74;100214.80;105902;1274;112624;-68
2022/01/10 06:37:07;;;;;;;108.50;50.50;;;;;;;-1.56;78.90;100222.44;105711;1276;138073;-68
2022/01/10 06:39:44;;;;;;;70.00;34.90;;;;;;;-1.59;78.68;100236.05;105997;1274;107477;-68
2022/01/10 06:42:17;;;;;;;68.60;32.50;;;;;;;-1.59;79.21;100240.13;105566;1274;138822;-68
2022/01/10 06:44:49;;;;;;;69.30;33.60;;;;;;;-1.58;78.79;100242.36;105810;1274;97864;-68
2022/01/10 06:47:21;;;;;;;83.80;37.20;;;;;;;-1.60;78.67;100248.47;105580;1274;139405;-68
2022/01/10 06:49:54;;;;;;;78.00;36.90;;;;;;;-1.60;78.68;100251.71;105752;1274;109175;-68
2022/01/10 06:52:26;;;;;;;74.10;36.00;;;;;;;-1.56;78.63;100258.59;105736;1276;110231;-68
2022/01/10 06:54:59;;;;;;;75.60;35.40;;;;;;;-1.54;78.80;100261.86;105784;1276;138926;-68
2022/01/10 06:57:31;;;;;;;80.50;37.90;;;;;;;-1.49;78.87;100266.20;105925;1274;97873;-67
2022/01/10 07:00:09;;;;;;;82.60;39.40;;;;;;;-1.42;78.82;100269.90;106032;1275;138048;-67
2022/01/10 07:02:48;;;;;;;82.20;38.20;;;;;;;-1.38;78.81;100276.11;107548;1274;109043;-68
2022/01/10 07:05:20;;;;;;;78.60;38.60;;;;;;;-1.36;78.81;100276.65;106191;1276;140092;-67
2022/01/10 07:07:54;;;;;;;83.60;39.90;;;;;;;-1.36;78.49;100278.02;105913;1275;97864;-68
2022/01/10 07:10:37;;;;;;;83.50;39.70;;;;;;;-1.35;78.58;100284.34;105866;1276;97847;-67
2022/01/10 07:13:09;;;;;;;89.80;39.70;;;;;;;-1.37;78.38;100290.27;105760;1276;138344;-68
2022/01/10 07:15:42;;;;;;;83.20;38.90;;;;;;;-1.40;78.24;100293.31;106027;1275;109061;-69
2022/01/10 07:18:14;;;;;;;79.80;36.90;;;;;;;-1.42;78.45;100301.30;105929;1276;138575;-67
2022/01/10 07:20:50;;;;;;;80.70;37.10;;;;;;;-1.43;78.20;100312.86;105969;1276;97874;-68
2022/01/10 07:23:23;;;;;;;75.70;36.20;;;;;;;-1.40;78.47;100310.02;105847;1276;138725;-68
2022/01/10 07:25:55;;;;;;;77.30;35.50;;;;;;;-1.39;78.27;100314.30;105853;1277;111250;-68
2022/01/10 07:28:27;;;;;;;78.50;37.50;;;;;;;-1.35;78.43;100320.67;106109;1275;109112;-68
2022/01/10 07:30:59;;;;;;;77.10;36.90;;;;;;;-1.29;78.65;100325.38;105910;1276;138053;-68
2022/01/10 07:33:31;;;;;;;77.30;37.10;;;;;;;-1.24;78.29;100327.02;105882;1275;98506;-68
2022/01/10 07:36:05;;;;;;;80.40;37.20;;;;;;;-1.23;78.41;100332.31;105834;1276;138074;-73
2022/01/10 07:38:37;;;;;;;83.40;39.20;;;;;;;-1.20;78.32;100333.38;105890;1276;112463;-71
2022/01/10 07:41:10;;;;;;;87.20;40.10;;;;;;;-1.17;78.26;100339.91;105965;1276;108940;-72
2022/01/10 07:43:42;;;;;;;85.50;39.60;;;;;;;-1.14;78.38;100347.27;105874;1274;139741;-71
2022/01/10 07:46:14;;;;;;;84.80;38.20;;;;;;;-1.14;78.19;100349.34;105909;1274;97843;-71
2022/01/10 07:48:47;;;;;;;82.20;37.00;;;;;;;-1.12;78.17;100355.00;105747;1275;138560;-70
2022/01/10 07:51:19;;;;;;;80.30;38.00;;;;;;;-1.12;77.77;100356.52;106009;1276;112585;-71
2022/01/10 07:53:52;;;;;;;80.00;37.20;;;;;;;-1.12;78.05;100361.30;105881;1276;140096;-71
2022/01/10 07:56:24;;;;;;;78.30;36.20;;;;;;;-1.11;78.00;100368.84;105937;1275;107881;-72
2022/01/10 07:58:56;;;;;;;75.40;36.90;;;;;;;-1.04;78.27;100369.64;105935;1276;97855;-71
2022/01/10 08:01:28;;;;;;;81.20;39.10;;;;;;;-0.97;78.19;100372.83;105866;1275;138599;-71
2022/01/10 08:04:00;;;;;;;81.60;39.20;;;;;;;-0.91;78.11;100376.16;106056;1273;111407;-72
2022/01/10 08:06:32;;;;;;;79.50;38.80;;;;;;;-0.91;77.86;100379.56;105958;1274;138030;-72
2022/01/10 08:09:06;;;;;;;85.60;39.70;;;;;;;-0.93;77.61;100382.61;106010;1274;107800;-72
2022/01/10 08:11:38;;;;;;;81.70;38.30;;;;;;;-0.92;77.74;100392.87;106045;1274;138703;-71
2022/01/10 08:14:10;;;;;;;80.40;39.00;;;;;;;-0.97;77.64;100399.28;106166;1274;97817;-71
2022/01/10 08:16:42;;;;;;;73.70;37.70;;;;;;;-1.01;77.40;100402.80;106077;1274;112544;-71
2022/01/10 08:19:15;;;;;;;74.50;36.50;;;;;;;-1.05;77.53;100409.91;105892;1273;138938;-71
2022/01/10 08:21:47;;;;;;;69.60;34.40;;;;;;;-1.07;77.39;100417.39;105972;1274;106986;-71
2022/01/10 08:24:19;;;;;;;69.60;33.70;;;;;;;-1.08;77.70;100419.06;105903;1276;139096;-72
2022/01/10 08:26:51;;;;;;;64.00;35.20;;;;;;;-1.09;77.68;100420.23;106071;1274;97961;-71
2022/01/10 08:29:26;;;;;;;68.60;34.70;;;;;;;-1.08;77.37;100425.72;105930;1273;139562;-71
2022/01/10 08:31:57;;;;;;;62.70;33.00;;;;;;;-1.08;77.34;100429.28;106414;1274;108866;-72
2022/01/10 08:34:30;;;;;;;60.70;32.50;;;;;;;-1.09;77.26;100432.01;105930;1274;107813;-71
2022/01/10 08:37:02;;;;;;;65.10;33.00;;;;;;;-1.10;77.19;100433.52;105887;1273;138876;-70
2022/01/10 08:39:34;;;;;;;62.00;32.60;;;;;;;-1.12;77.27;100439.80;105841;1274;97951;-70
2022/01/10 08:42:06;;;;;;;59.50;32.80;;;;;;;-1.15;77.51;100445.21;106037;1274;137893;-69
2022/01/10 08:44:39;;;;;;;63.40;34.00;;;;;;;-1.17;77.34;100452.01;105913;1274;107717;-70
2022/01/10 08:47:11;;;;;;;56.60;30.80;;;;;;;-1.17;77.56;100450.13;105826;1274;108817;-70
2022/01/10 08:49:43;;;;;;;58.00;30.90;;;;;;;-1.18;77.26;100453.85;105873;1273;139713;-70
2022/01/10 08:52:17;;;;;;;56.00;31.30;;;;;;;-1.16;77.28;100458.84;105978;1274;97822;-70
2022/01/10 08:54:49;;;;;;;60.70;31.20;;;;;;;-1.09;77.65;100458.96;105903;1274;137968;-70
2022/01/10 08:57:21;;;;;;;62.80;32.80;;;;;;;-1.03;77.41;100464.89;106213;1274;108361;-71
2022/01/10 08:59:53;;;;;;;62.70;31.40;;;;;;;-0.99;77.04;100465.46;105764;1274;138350;-70
2022/01/10 09:02:25;;;;;;;63.60;33.70;;;;;;;-1.01;77.11;100472.78;105902;1274;97851;-69
2022/01/10 09:04:57;;;;;;;60.10;31.20;;;;;;;-1.03;76.85;100473.25;105978;1274;97829;-70
2022/01/10 09:07:29;;;;;;;66.30;31.60;;;;;;;-1.03;76.86;100474.45;105958;1275;139076;-69
2022/01/10 09:10:01;;;;;;;63.60;30.90;;;;;;;-1.00;76.82;100479.96;106065;1273;109183;-69
2022/01/10 09:12:34;;;;;;;62.30;30.60;;;;;;;-1.01;76.54;100478.92;105902;1276;139102;-70
2022/01/10 09:15:07;;;;;;;55.50;29.60;;;;;;;-1.01;76.72;100485.77;105907;1274;97884;-71
2022/01/10 09:17:39;;;;;;;54.80;27.60;;;;;;;-0.99;76.69;100490.91;105812;1274;141500;-70
2022/01/10 09:20:12;;;;;;;56.60;27.70;;;;;;;-0.92;76.53;100495.98;105998;1274;110474;-69
2022/01/10 09:22:44;;;;;;;51.20;27.00;;;;;;;-0.87;76.41;100499.83;107555;1273;108912;-70
2022/01/10 09:25:16;;;;;;;56.80;27.70;;;;;;;-0.77;76.51;100503.23;107435;1274;138702;-70
2022/01/10 09:27:48;;;;;;;54.40;28.10;;;;;;;-0.65;76.16;100504.50;107518;1275;96281;-71
2022/01/10 09:30:21;;;;;;;55.90;28.30;;;;;;;-0.54;75.92;100506.20;106916;1274;138238;-71
2022/01/10 09:32:54;;;;;;;52.30;27.20;;;;;;;-0.47;75.64;100507.01;105996;1274;112045;-70
2022/01/10 09:35:26;;;;;;;57.60;27.70;;;;;;;-0.37;75.48;100509.75;107130;1276;139580;-70
2022/01/10 09:37:58;;;;;;;54.20;28.10;;;;;;;-0.25;75.30;100505.82;107280;1276;109119;-70
2022/01/10 09:40:30;;;;;;;59.30;29.70;;;;;;;-0.15;75.00;100502.73;107412;1274;97792;-71
2022/01/10 09:43:03;;;;;;;56.80;27.80;;;;;;;-0.09;74.41;100499.41;107482;1274;138728;-71
2022/01/10 09:45:36;;;;;;;53.00;27.50;;;;;;;0.05;74.54;100503.04;107463;1276;111325;-71
2022/01/10 09:48:09;;;;;;;49.50;27.20;;;;;;;0.24;74.54;100509.96;107445;1274;138128;-71
2022/01/10 09:50:41;;;;;;;51.90;27.00;;;;;;;0.59;74.39;100509.74;107603;1273;108905;-71
2022/01/10 09:53:15;;;;;;;51.40;27.40;;;;;;;0.88;73.61;100512.65;107183;1275;96198;-71
2022/01/10 09:55:48;;;;;;;51.70;27.40;;;;;;;1.15;73.06;100511.06;105995;1273;137564;-70
2022/01/10 09:58:20;;;;;;;50.90;27.20;;;;;;;1.36;72.62;100512.81;105932;1274;112451;-71
2022/01/10 10:00:56;;;;;;;47.80;25.60;;;;;;;1.65;72.49;100514.61;105897;1273;138268;-70
2022/01/10 10:03:27;;;;;;;;;;;;;;;1.89;71.70;100515.66;106000;1274;108787;-71
2022/01/10 10:06:00;;;;;;;51.60;26.50;;;;;;;2.14;71.39;100521.14;105828;1274;124224;-71
2022/01/10 10:08:33;;;;;;;48.50;26.50;;;;;;;2.55;71.44;100526.52;105972;1276;97836;-71
2022/01/10 10:11:06;;;;;;;52.30;27.60;;;;;;;2.94;70.54;100530.46;105823;1274;112444;-71
2022/01/10 10:13:51;;;;;;;54.50;25.80;;;;;;;3.24;69.73;100533.13;105596;1274;137918;-71
2022/01/10 10:16:26;;;;;;;46.30;25.40;;;;;;;3.53;69.52;100535.06;105822;1274;107837;-71
2022/01/10 10:18:59;;;;;;;44.90;24.90;;;;;;;3.81;68.82;100540.05;105509;1274;137779;-71
2022/01/10 10:21:31;;;;;;;47.00;25.90;;;;;;;4.05;68.17;100539.02;105668;1274;97806;-71
2022/01/10 10:24:05;;;;;;;44.40;26.30;;;;;;;4.23;67.02;100537.95;105894;1274;138628;-71
2022/01/10 10:26:37;;;;;;;45.80;25.70;;;;;;;4.33;66.29;100543.29;105890;1274;106898;-70
2022/01/10 10:29:13;;;;;;;46.80;26.60;;;;;;;4.38;66.06;100545.70;106034;1274;107391;-71
2022/01/10 10:31:48;;;;;;;46.90;25.70;;;;;;;4.41;65.67;100546.70;105955;1274;137684;-71
2022/01/10 10:34:22;;;;;;;46.30;24.60;;;;;;;4.47;64.58;100549.78;105978;1274;98376;-71
2022/01/10 10:37:07;;;;;;;44.40;25.00;;;;;;;4.27;62.64;100550.70;105836;1275;137719;-71
2022/01/10 10:39:42;;;;;;;46.50;25.00;;;;;;;4.16;63.49;100552.78;105758;1274;109810;-71
2022/01/10 10:42:16;;;;;;;42.20;24.50;;;;;;;4.07;62.62;100558.46;105864;1274;137912;-71
2022/01/10 10:44:48;;;;;;;50.70;25.20;;;;;;;3.85;62.49;100566.90;105877;1275;97983;-71
2022/01/10 10:47:28;;;;;;;44.80;24.10;;;;;;;3.68;63.32;100563.96;105744;1275;98427;-71
2022/01/10 10:50:01;;;;;;;49.50;25.20;;;;;;;3.59;63.42;100564.98;105661;1274;137691;-71
2022/01/10 10:52:41;;;;;;;43.20;24.00;;;;;;;3.57;63.97;100573.23;105807;1274;107247;-70
2022/01/10 10:55:15;;;;;;;43.30;23.90;;;;;;;3.57;63.74;100578.58;105817;1276;138055;-70
2022/01/10 10:57:48;;;;;;;43.90;24.30;;;;;;;3.42;63.18;100575.27;106012;1274;97821;-71
2022/01/10 11:00:20;;;;;;;41.30;22.90;;;;;;;3.24;62.98;100576.77;105743;1274;138011;-71
2022/01/10 11:02:53;;;;;;;44.30;22.90;;;;;;;3.07;63.22;100587.38;105598;1276;112907;-72
2022/01/10 11:05:25;;;;;;;40.80;21.90;;;;;;;3.11;63.54;100591.16;105863;1274;108893;-71
2022/01/10 11:07:58;;;;;;;42.20;21.60;;;;;;;3.17;63.54;100593.06;105606;1276;137658;-71
2022/01/10 11:10:31;;;;;;;42.30;22.00;;;;;;;3.25;62.95;100595.52;105880;1276;97835;-71
2022/01/10 11:13:04;;;;;;;39.80;20.40;;;;;;;3.31;62.66;100594.66;105914;1276;137762;-71
2022/01/10 11:15:38;;;;;;;38.20;17.40;;;;;;;3.22;61.58;100602.36;106004;1274;112395;-71
2022/01/10 11:18:11;;;;;;;30.90;17.10;;;;;;;2.93;59.90;100603.97;105943;1275;139164;-71
2022/01/10 11:20:46;;;;;;;29.10;16.30;;;;;;;2.56;60.26;100603.77;105964;1276;107129;-72
2022/01/10 11:23:44;;;;;;;30.20;16.20;;;;;;;2.15;60.15;100611.38;105765;1275;97847;-71
2022/01/10 11:26:17;;;;;;;30.80;16.30;;;;;;;1.85;60.69;100616.45;105814;1276;137610;-71
2022/01/10 11:28:53;;;;;;;25.90;15.00;;;;;;;1.56;60.64;100618.05;105893;1276;111566;-71
2022/01/10 11:31:28;;;;;;;27.30;15.60;;;;;;;1.31;61.31;100617.61;105953;1276;137842;-71
2022/01/10 11:34:01;;;;;;;29.80;16.10;;;;;;;1.24;62.00;100622.48;106040;1274;108913;-71